Carrick-on-Shannon, Ireland

8:52 PM IST on June 26, 2017 (GMT +0100)
Derrysallagh | | Change Station

Elev 0 ft 54.09 °N, 8.22 °W | Updated 1 minute ago

Rain
Rain
52.7 °F
Feels Like 52.7 °F
N
1.0
Wind Variable Wind from West
Gusts 2.0 mph

Today
High -- | Low -- °F
--% Chance of Precip.
Yesterday
High -- | Low -- °F
Precip. -- in
Pressure 29.80 in
Visibility 0.6 miles
Clouds Overcast 200 ft
Dew Point 47 °F
Humidity 81%
Rainfall 0.15 in
Snow Depth Not available.
5:01 AM 10:08 PM
Waxing Crescent, 10% visible
METAR EIKN 261930Z 10011KT 070V140 1000 -RA OVC002 10/09 Q1009 NOSIG
Pressure 29.80 in
Visibility 0.6 miles
Clouds Overcast 200 ft
Dew Point 47 °F
Humidity 81%
Rainfall 0.15 in
Snow Depth Not available.
5:01 AM 10:08 PM
Waxing Crescent, 10% visible
METAR EIKN 261930Z 10011KT 070V140 1000 -RA OVC002 10/09 Q1009 NOSIG

Get Severe Weather Alerts

Thanks for signing up!

Be on the lookout for a verification email in your inbox.

You'll start receiving the daily forecast at 6 AM.

×

10-Day Weather Forecast

×

Almanac

Astronomy

Jun. 26, 2017 Rise Set
Actual Time
Civil Twilight
Nautical Twilight
Astronomical Twilight
Moon
Length of Visible Light
Length of Day
Tomorrow will be .
, % of the Moon is Illuminated

Today's Extremes

Country Highs Country Lows

Community

WunderPhotos

Category 6

Welcome to Category 6. This is the collective home for Weather Underground's featured writeups by Dr. Jeff Masters (right), Bob Henson (left), Chris Burt, and other regular contributors.

Nearby

Air Quality

  Air Quality AQ Index Pollutant
Not available.

Snow Depth

Station Depth Elevation

Earthquake Activity

City Distance Mag. Time & Date
Minimum magnitude displayed is 2.5.

Coastal Water Temperatures

Place Temperature

Stations

Nearby Weather Stations

Station Location Temp. Windchill Dew Point Humidity Wind Precip. Elev Updated Type